Melbourne Airport, Victoria

12:53 AM AEST on August 26, 2016 (GMT +1000)
Melbourne International | | Change Station

Elev 387 ft 37.67 °S, 144.83 °E | Updated 23 minutes ago

Scattered Clouds
Scattered Clouds
45 °F
Feels Like 39 °F
N
10
Wind Variable Wind from West

Today
High -- | Low -- °F
--% Chance of Precip.
Yesterday
High -- | Low -- °F
Precip. -- in
Pressure 30.09 in
Visibility 6.2 miles
Clouds Few 3000 ft
Scattered Clouds 5200 ft
Windchill 39 °F
Dew Point 41 °F
Humidity 87%
Rainfall 0.00 in
Snow Depth Not available.
6:50 AM 5:54 PM
Last Quarter, 45% visible
METAR YMML 251430Z 27009KT 9999 FEW030 SCT052 07/05 Q1019 NOSIG
Pressure 30.09 in
Visibility 6.2 miles
Clouds Few 3000 ft
Scattered Clouds 5200 ft
Windchill 39 °F
Dew Point 41 °F
Humidity 87%
Rainfall 0.00 in
Snow Depth Not available.
6:50 AM 5:54 PM
Last Quarter, 45% visible
METAR YMML 251430Z 27009KT 9999 FEW030 SCT052 07/05 Q1019 NOSIG

10-Day Weather Forecast

Almanac

Astronomy

Aug. 26, 2016 Rise Set
Actual Time
Civil Twilight
Nautical Twilight
Astronomical Twilight
Moon
Length of Visible Light
Length of Day
Tomorrow will be .
, % of the Moon is Illuminated

Today's Extremes

Country Highs Country Lows

Community

WunderPhotos

Upload Photos

1,934,850 photos uploaded!

WunderBlog® & News

Nearby

Air Quality

  Air Quality AQ Index Pollutant
Not available.

Snow Depth

Station Depth Elevation

Earthquake Activity

City Distance Mag. Time & Date
Minimum magnitude displayed is 2.5.

Coastal Water Temperatures

Place Temperature

Stations

Nearby Weather Stations

Station Location Temp. Windchill Dew Point Humidity Wind Precip. Elev Updated Type